Time;durP1;ratioP1;P1;durP2;ratioP2;P2;SDS_P1;SDS_P2;PMS_P1;PMS_P2;Temp;Humidity;BMP_temperature;BMP_pressure;BME280_temperature;BME280_humidity;BME280_pressure;Samples;Min_cycle;Max_cycle;Signal;HPM_P1;HPM_P2
2022/09/09 00:01:14;;;;;;;0.40;0.40;;;;;;;14.25;84.27;100697.84;5075309;28;20020;-95
2022/09/09 00:04:04;;;;;;;0.40;0.40;;;;;;;14.20;84.55;100703.22;5076539;28;20414;-96
2022/09/09 00:06:54;;;;;;;0.50;0.40;;;;;;;14.18;83.53;100696.34;5077738;28;20039;-95
2022/09/09 00:09:45;;;;;;;0.30;0.30;;;;;;;14.16;83.66;100691.16;5076042;28;20028;-95
2022/09/09 00:12:36;;;;;;;0.40;0.40;;;;;;;14.18;83.30;100698.97;5076996;28;20021;-95
2022/09/09 00:15:25;;;;;;;0.30;0.30;;;;;;;14.16;83.28;100690.31;5076719;28;20102;-95
2022/09/09 00:18:14;;;;;;;0.30;0.30;;;;;;;14.16;84.08;100692.94;5075496;28;20056;-94
2022/09/09 00:21:03;;;;;;;0.32;0.32;;;;;;;14.10;83.95;100680.94;5077770;28;20119;-95
2022/09/09 00:23:51;;;;;;;0.30;0.30;;;;;;;14.10;83.87;100690.50;5078972;28;20055;-95
2022/09/09 00:26:44;;;;;;;0.30;0.30;;;;;;;14.08;83.90;100684.47;5078970;28;20346;-95
2022/09/09 00:29:31;;;;;;;0.30;0.30;;;;;;;14.07;83.95;100685.41;5077739;28;20035;-95
2022/09/09 00:32:18;;;;;;;0.22;0.22;;;;;;;14.03;84.15;100685.50;5080454;28;20051;-95
2022/09/09 00:35:15;;;;;;;0.30;0.30;;;;;;;14.00;84.95;100685.59;5080865;28;20032;-96
2022/09/09 00:37:42;;;;;;;0.30;0.30;;;;;;;13.97;86.52;100683.06;5076799;28;20037;-96
2022/09/09 00:40:31;;;;;;;1.48;0.68;;;;;;;13.88;87.18;100681.63;5080359;28;20032;-96
2022/09/09 00:43:27;;;;;;;0.50;0.50;;;;;;;13.85;86.44;100675.63;5079606;28;20039;-95
2022/09/09 00:46:32;;;;;;;0.85;0.40;;;;;;;13.83;87.22;100680.06;5082294;28;20031;-95
2022/09/09 00:49:01;;;;;;;;;;;;;;;13.78;86.54;100667.16;5079876;28;20082;-95
2022/09/09 00:51:50;;;;;;;0.40;0.40;;;;;;;13.72;87.41;100662.13;5081724;28;19909;-95
2022/09/09 00:55:12;;;;;;;0.60;0.60;;;;;;;13.69;87.59;100662.22;5080909;28;20040;-96
2022/09/09 00:57:38;;;;;;;0.52;0.52;;;;;;;13.65;86.46;100658.03;5000987;28;20106;-96
2022/09/09 01:00:26;;;;;;;0.57;0.57;;;;;;;13.67;88.82;100659.66;5000211;28;20058;-96
2022/09/09 01:03:48;;;;;;;0.50;0.50;;;;;;;13.65;86.48;100665.84;5058804;28;20512;-95
2022/09/09 01:06:22;;;;;;;0.47;0.47;;;;;;;13.63;87.18;100659.81;4999055;28;20039;-95
2022/09/09 01:09:37;;;;;;;0.40;0.38;;;;;;;13.64;86.78;100667.56;5017048;28;20037;-96
2022/09/09 01:12:29;;;;;;;0.40;0.40;;;;;;;13.63;88.01;100667.63;5076982;28;20035;-95
2022/09/09 01:15:19;;;;;;;0.60;0.60;;;;;;;13.57;86.86;100653.03;5077918;28;20020;-96
2022/09/09 01:17:44;;;;;;;1.55;0.80;;;;;;;13.56;89.27;100661.75;5076499;28;20016;-93
2022/09/09 01:20:36;;;;;;;0.60;0.60;;;;;;;13.54;88.31;100661.81;5078365;28;20035;-95
2022/09/09 01:23:51;;;;;;;0.73;0.57;;;;;;;13.53;87.65;100660.09;5079687;28;20158;-95
2022/09/09 01:26:39;;;;;;;0.40;0.40;;;;;;;13.54;87.08;100658.34;5081080;28;20028;-95
2022/09/09 01:29:27;;;;;;;0.30;0.30;;;;;;;13.54;88.35;100656.59;5077561;28;20028;-95
2022/09/09 01:34:42;;;;;;;0.40;0.40;;;;;;;13.56;86.81;100656.53;5076897;28;20062;-94
2022/09/09 01:37:17;;;;;;;0.30;0.30;;;;;;;13.58;88.06;100657.34;5077405;28;20021;-95
2022/09/09 01:39:44;;;;;;;0.38;0.38;;;;;;;13.53;87.48;100649.69;5076724;28;20485;-94
2022/09/09 01:42:21;;;;;;;0.35;0.35;;;;;;;13.55;87.87;100642.66;5076950;28;20028;-93
2022/09/09 01:44:46;;;;;;;0.40;0.40;;;;;;;13.56;86.84;100643.50;5075035;28;20036;-94
2022/09/09 01:47:30;;;;;;;0.60;0.60;;;;;;;13.54;87.06;100640.09;5076834;28;20024;-94
2022/09/09 01:49:55;;;;;;;0.30;0.30;;;;;;;13.53;87.72;100647.06;5055421;28;20053;-94
2022/09/09 01:56:01;;;;;;;0.60;0.60;;;;;;;13.48;88.52;100642.91;5076597;28;20392;-94
2022/09/09 01:58:52;;;;;;;0.40;0.40;;;;;;;13.46;89.16;100640.31;5076619;28;20017;-95
2022/09/09 02:01:42;;;;;;;0.70;0.70;;;;;;;13.47;88.60;100643.78;5075578;28;20025;-95
2022/09/09 02:04:28;;;;;;;0.50;0.50;;;;;;;13.44;88.64;100639.53;5076272;28;20476;-95
2022/09/09 02:07:43;;;;;;;0.50;0.50;;;;;;;13.45;87.68;100636.03;5075506;28;20115;-95
2022/09/09 02:10:19;;;;;;;0.65;0.63;;;;;;;13.42;89.53;100638.72;5075097;28;20060;-95
2022/09/09 02:13:32;;;;;;;1.17;0.88;;;;;;;13.37;88.25;100633.63;5075560;28;20161;-94
2022/09/09 02:16:20;;;;;;;0.30;0.30;;;;;;;13.38;87.62;100629.25;5038904;28;20122;-95
2022/09/09 02:18:51;;;;;;;0.43;0.43;;;;;;;13.40;87.60;100628.31;5074797;28;20044;-94
2022/09/09 02:21:34;;;;;;;0.50;0.50;;;;;;;13.40;88.81;100624.88;5074760;28;20420;-94
2022/09/09 02:27:11;;;;;;;0.60;0.60;;;;;;;13.40;88.46;100627.47;5075036;28;20132;-95
2022/09/09 02:29:57;;;;;;;0.80;0.80;;;;;;;13.35;88.66;100622.38;5075027;28;20035;-95
2022/09/09 02:32:24;;;;;;;0.93;0.80;;;;;;;13.33;87.82;100621.56;5074358;28;20094;-95
2022/09/09 02:35:08;;;;;;;0.40;0.40;;;;;;;13.32;87.55;100617.25;5074079;28;20020;-95
2022/09/09 02:37:51;;;;;;;0.93;0.60;;;;;;;13.32;88.20;100616.41;5074656;28;20028;-94
2022/09/09 02:40:17;;;;;;;0.80;0.80;;;;;;;13.25;89.52;100618.34;5075359;28;20267;-94
2022/09/09 02:43:08;;;;;;;1.80;0.90;;;;;;;13.24;87.99;100616.63;5073583;28;20023;-95
2022/09/09 02:46:12;;;;;;;1.05;0.98;;;;;;;13.19;89.62;100615.91;5074731;28;20024;-94
2022/09/09 02:52:00;;;;;;;1.85;1.05;;;;;;;13.18;90.65;100616.81;5074482;28;20044;-95
2022/09/09 02:54:31;;;;;;;0.60;0.60;;;;;;;13.18;89.20;100616.81;5073942;28;20075;-94
2022/09/09 02:57:23;;;;;;;0.80;0.80;;;;;;;13.19;88.98;100623.72;5074048;28;20089;-94
2022/09/09 03:00:02;;;;;;;0.60;0.60;;;;;;;13.19;88.90;100624.59;5073455;28;20093;-94
2022/09/09 03:02:27;;;;;;;1.77;1.10;;;;;;;13.20;90.14;100628.03;5074005;28;20020;-95
2022/09/09 03:04:53;;;;;;;0.80;0.80;;;;;;;13.19;89.01;100626.34;5073621;28;20047;-94
2022/09/09 03:07:36;;;;;;;0.90;0.50;;;;;;;13.20;89.05;100622.81;5073533;28;20029;-95
2022/09/09 03:10:02;;;;;;;0.40;0.40;;;;;;;13.19;87.94;100621.13;5073868;28;20036;-95
2022/09/09 03:12:40;;;;;;;0.57;0.57;;;;;;;13.21;88.29;100621.94;5073939;28;20016;-95
2022/09/09 03:15:06;;;;;;;0.43;0.43;;;;;;;13.19;88.15;100623.72;5074274;28;20017;-95
2022/09/09 03:17:46;;;;;;;0.75;0.57;;;;;;;13.20;88.68;100623.69;5073749;28;20016;-95
2022/09/09 03:20:12;;;;;;;0.73;0.60;;;;;;;13.21;88.48;100627.16;5073734;28;20094;-95
2022/09/09 03:22:49;;;;;;;0.40;0.40;;;;;;;13.23;87.86;100639.22;5073772;28;20020;-95
2022/09/09 03:25:15;;;;;;;0.30;0.30;;;;;;;13.23;88.33;100638.38;5073933;28;20089;-95
2022/09/09 03:27:56;;;;;;;0.30;0.30;;;;;;;13.26;88.33;100635.69;5073499;28;20025;-95
2022/09/09 03:30:40;;;;;;;0.52;0.50;;;;;;;13.25;88.16;100636.59;5073789;28;20029;-95
2022/09/09 03:33:05;;;;;;;0.75;0.70;;;;;;;13.26;88.27;100631.31;5073331;28;20119;-95
2022/09/09 03:35:30;;;;;;;0.67;0.63;;;;;;;13.26;88.96;100633.94;5073743;28;20059;-95
2022/09/09 03:38:11;;;;;;;0.60;0.60;;;;;;;13.28;89.50;100628.69;5073575;28;20108;-95
2022/09/09 03:40:36;;;;;;;1.10;0.80;;;;;;;13.28;90.62;100628.69;5073481;28;20064;-96
2022/09/09 03:43:11;;;;;;;0.47;0.47;;;;;;;13.27;89.45;100630.44;5072978;28;20458;-94
2022/09/09 03:45:36;;;;;;;0.43;0.43;;;;;;;13.30;90.02;100626.88;5073883;28;20057;-95
2022/09/09 03:48:15;;;;;;;0.33;0.33;;;;;;;13.27;89.50;100624.38;5073662;28;20376;-95
2022/09/09 03:51:06;;;;;;;1.27;0.80;;;;;;;13.27;90.12;100625.22;5074112;28;20032;-95
2022/09/09 03:53:47;;;;;;;0.80;0.80;;;;;;;13.29;88.72;100625.16;5052815;28;20045;-94
2022/09/09 03:56:13;;;;;;;0.70;0.60;;;;;;;13.31;89.14;100622.53;5074056;28;20023;-95
2022/09/09 03:58:39;;;;;;;0.60;0.60;;;;;;;13.31;89.60;100625.97;5074027;28;20025;-95
2022/09/09 04:01:24;;;;;;;0.60;0.60;;;;;;;13.35;89.66;100629.31;5073318;28;20078;-95
2022/09/09 04:03:50;;;;;;;0.40;0.40;;;;;;;13.34;89.53;100625.88;5073221;28;20024;-96
2022/09/09 04:06:25;;;;;;;0.67;0.67;;;;;;;13.35;89.90;100626.72;5077780;28;20031;-95
2022/09/09 04:08:52;;;;;;;0.73;0.73;;;;;;;13.35;90.56;100624.97;5077111;28;20047;-95
2022/09/09 04:11:42;;;;;;;1.48;1.17;;;;;;;13.35;92.18;100621.50;5077221;28;20099;-95
2022/09/09 04:14:13;;;;;;;1.10;1.00;;;;;;;13.33;91.86;100621.56;5077673;28;20025;-94
2022/09/09 04:16:42;;;;;;;0.80;0.75;;;;;;;13.36;89.35;100618.00;5077032;28;20048;-96
2022/09/09 04:19:27;;;;;;;0.75;0.75;;;;;;;13.38;90.31;100611.88;5084122;22;20493;-94
2022/09/09 04:21:52;;;;;;;0.95;0.95;;;;;;;13.37;90.82;100614.50;5076628;28;20039;-95
2022/09/09 04:24:36;;;;;;;2.73;1.00;;;;;;;13.39;89.45;100621.44;5076868;28;20012;-94
2022/09/09 04:27:01;;;;;;;1.05;0.95;;;;;;;13.38;91.48;100618.81;5076857;28;20031;-95
2022/09/09 04:29:47;;;;;;;1.70;1.27;;;;;;;13.39;92.60;100611.00;5076819;28;20024;-94
2022/09/09 04:32:33;;;;;;;1.00;1.00;;;;;;;13.40;90.64;100607.47;5077663;28;20042;-96
2022/09/09 04:34:58;;;;;;;1.83;1.10;;;;;;;13.40;90.10;100611.84;5077403;28;20051;-95
2022/09/09 04:37:46;;;;;;;1.33;1.23;;;;;;;13.41;92.22;100614.38;5077423;28;20017;-96
2022/09/09 04:40:11;;;;;;;1.15;1.02;;;;;;;13.41;91.89;100608.34;5078369;28;20032;-95
2022/09/09 04:42:38;;;;;;;2.50;1.37;;;;;;;13.40;92.23;100604.84;5077910;28;20480;-96
2022/09/09 04:45:27;;;;;;;1.15;1.00;;;;;;;13.41;91.33;100605.72;5075536;28;20178;-95
2022/09/09 04:47:53;;;;;;;1.00;1.00;;;;;;;13.37;91.93;100604.94;5078406;28;20469;-96
2022/09/09 04:50:38;;;;;;;0.93;0.80;;;;;;;13.42;90.99;100608.28;5080076;28;20029;-96
2022/09/09 04:53:04;;;;;;;1.05;0.80;;;;;;;13.39;91.99;100600.56;5077097;28;20051;-95
2022/09/09 04:55:56;;;;;;;;;;;;;;;13.38;92.68;100597.97;5077485;28;20020;-95
2022/09/09 04:58:45;;;;;;;3.47;1.25;;;;;;;13.36;92.95;100594.53;5078034;28;19958;-95
2022/09/09 05:01:24;;;;;;;1.75;1.50;;;;;;;13.34;93.38;100596.38;5077638;28;20048;-94
2022/09/09 05:03:49;;;;;;;1.92;1.40;;;;;;;13.35;93.50;100598.06;5077971;28;20024;-95
2022/09/09 05:06:29;;;;;;;1.10;1.03;;;;;;;13.35;93.45;100588.50;5078090;28;20107;-96
2022/09/09 05:08:55;;;;;;;1.85;1.30;;;;;;;13.36;93.02;100603.25;5078009;28;20021;-94
2022/09/09 05:14:09;;;;;;;1.30;1.20;;;;;;;13.43;93.39;100601.31;5076822;28;20439;-96
2022/09/09 05:16:49;;;;;;;2.85;1.38;;;;;;;13.43;94.18;100596.13;5075912;28;20017;-95
2022/09/09 05:19:18;;;;;;;1.60;1.15;;;;;;;13.44;93.72;100592.63;5060551;28;20053;-95
2022/09/09 05:21:44;;;;;;;2.33;1.23;;;;;;;13.44;93.88;100592.63;5057814;28;20033;-95
2022/09/09 05:24:34;;;;;;;1.40;1.00;;;;;;;13.50;93.42;100594.16;5059119;28;20112;-95
2022/09/09 05:27:02;;;;;;;1.55;0.98;;;;;;;13.48;93.07;100591.59;5057097;28;20036;-94
2022/09/09 05:29:50;;;;;;;4.03;1.55;;;;;;;13.53;92.98;100589.72;5057011;28;20535;-94
2022/09/09 05:32:16;;;;;;;2.05;1.25;;;;;;;13.52;93.52;100581.91;5059464;28;20063;-95
2022/09/09 05:34:57;;;;;;;2.42;1.38;;;;;;;13.51;94.20;100582.84;5058658;28;20031;-96
2022/09/09 05:37:23;;;;;;;2.15;1.20;;;;;;;13.53;94.59;100583.63;5058537;28;20024;-93
2022/09/09 05:40:08;;;;;;;2.23;1.47;;;;;;;13.51;94.90;100586.28;5058072;28;20025;-95
2022/09/09 05:42:33;;;;;;;2.13;1.20;;;;;;;13.53;94.98;100592.31;5057728;28;20088;-94
2022/09/09 05:47:44;;;;;;;1.35;1.23;;;;;;;13.55;93.46;100597.47;5056262;28;20041;-95
2022/09/09 05:50:31;;;;;;;0.93;0.90;;;;;;;13.62;94.16;100600.75;5057685;28;20484;-95
2022/09/09 05:52:57;;;;;;;1.58;1.27;;;;;;;13.62;95.40;100601.59;5037320;28;20041;-94
2022/09/09 05:55:22;;;;;;;1.40;1.30;;;;;;;13.66;95.52;100604.97;5035998;28;20105;-91
2022/09/09 05:58:43;;;;;;;1.20;1.10;;;;;;;13.72;94.26;100604.75;5034938;28;20024;-92
2022/09/09 06:01:15;;;;;;;3.97;1.58;;;;;;;13.75;96.96;100600.28;5035254;28;20026;-90
2022/09/09 06:04:02;;;;;;;5.70;1.80;;;;;;;13.75;96.82;100605.50;5034838;28;20105;-89
2022/09/09 06:06:31;;;;;;;4.68;1.90;;;;;;;13.77;97.32;100602.00;5034611;28;20072;-90
2022/09/09 06:08:57;;;;;;;1.95;1.73;;;;;;;13.77;97.56;100607.22;5034225;28;20057;-87
2022/09/09 06:11:40;;;;;;;4.28;1.80;;;;;;;13.78;96.40;100606.31;5034187;28;20108;-91
2022/09/09 06:14:06;;;;;;;4.15;1.73;;;;;;;13.82;97.05;100606.16;5035245;28;20493;-93
2022/09/09 06:16:32;;;;;;;4.80;1.80;;;;;;;13.89;95.49;100602.47;5043272;28;20013;-90
2022/09/09 06:19:06;;;;;;;5.40;1.90;;;;;;;13.99;97.03;100605.59;5053911;28;20428;-87
2022/09/09 06:21:36;;;;;;;5.13;1.90;;;;;;;14.08;96.74;100609.66;5053978;28;20021;-89
2022/09/09 06:24:17;;;;;;;4.63;1.80;;;;;;;14.17;97.50;100603.28;5055429;28;20108;-91
2022/09/09 06:26:42;;;;;;;3.92;1.85;;;;;;;14.25;97.60;100598.66;5056955;28;20035;-96
2022/09/09 06:29:10;;;;;;;4.70;2.00;;;;;;;14.40;98.08;100604.25;5054306;28;20112;-90
2022/09/09 06:31:36;;;;;;;5.93;2.10;;;;;;;14.47;97.28;100606.56;5052578;28;20473;-87
2022/09/09 06:34:25;;;;;;;4.43;1.88;;;;;;;14.51;97.61;100602.97;5053443;28;20542;-92
2022/09/09 06:36:51;;;;;;;3.53;2.00;;;;;;;14.51;97.28;100608.19;5053741;28;20444;-91
2022/09/09 06:39:17;;;;;;;6.23;2.13;;;;;;;14.50;96.29;100600.41;5052959;28;20100;-85
2022/09/09 06:41:58;;;;;;;8.00;2.37;;;;;;;14.46;96.30;100599.69;5053224;28;20322;-87
2022/09/09 06:44:24;;;;;;;7.60;2.20;;;;;;;14.51;96.26;100600.34;5055349;28;20057;-89
2022/09/09 06:46:49;;;;;;;4.70;2.03;;;;;;;14.60;96.26;100600.91;5052843;28;20534;-88
2022/09/09 06:49:15;;;;;;;5.67;2.07;;;;;;;14.64;95.57;100595.53;5053785;28;20025;-88
2022/09/09 06:51:56;;;;;;;4.17;2.13;;;;;;;14.68;95.41;100601.53;5053269;28;20037;-82
2022/09/09 06:54:23;;;;;;;3.42;1.90;;;;;;;14.79;94.95;100601.13;5054756;28;20465;-92
2022/09/09 06:56:49;;;;;;;6.05;2.10;;;;;;;16.56;93.73;100597.56;5054109;28;20045;-85
2022/09/09 07:02:01;;;;;;;6.20;2.10;;;;;;;21.07;72.62;100596.47;5073026;28;20111;-93
2022/09/09 07:04:36;;;;;;;3.27;1.57;;;;;;;22.29;75.44;100606.13;5073726;28;20074;-89
2022/09/09 07:07:17;;;;;;;2.80;1.30;;;;;;;23.52;67.59;100601.91;5073566;28;20032;-88
2022/09/09 07:09:43;;;;;;;3.47;1.80;;;;;;;23.80;64.22;100599.00;5072614;28;20044;-92
2022/09/09 07:12:08;;;;;;;1.83;1.40;;;;;;;23.31;65.10;100612.25;5074292;28;20021;-91
2022/09/09 07:14:39;;;;;;;1.93;1.20;;;;;;;22.54;65.10;100605.31;5074034;28;20111;-89
2022/09/09 07:17:05;;;;;;;4.82;2.10;;;;;;;21.35;65.31;100607.88;5073578;28;20029;-95
2022/09/09 07:19:30;;;;;;;5.53;1.70;;;;;;;20.32;69.60;100602.78;5074011;28;20111;-95
2022/09/09 07:22:16;;;;;;;4.53;1.70;;;;;;;19.38;72.04;100603.75;5073088;28;20037;-93
2022/09/09 07:24:44;;;;;;;4.28;2.00;;;;;;;18.73;73.07;100600.25;5073730;28;20024;-92
2022/09/09 07:27:32;;;;;;;4.40;1.70;;;;;;;18.26;76.01;100596.53;5073911;28;20029;-93
2022/09/09 07:29:57;;;;;;;3.72;1.60;;;;;;;17.87;76.08;100601.06;5074911;28;20032;-95
2022/09/09 07:35:43;;;;;;;7.97;2.00;;;;;;;17.41;80.00;100592.81;5073855;28;20081;-92
2022/09/09 07:38:09;;;;;;;5.33;2.40;;;;;;;17.25;80.37;100592.72;5075742;28;20028;-94
2022/09/09 07:40:54;;;;;;;4.83;2.00;;;;;;;17.00;79.09;100599.09;5076600;28;20029;-93
2022/09/09 07:43:26;;;;;;;6.60;2.00;;;;;;;16.76;80.76;100601.91;5078042;28;20155;-93
2022/09/09 07:46:09;;;;;;;5.30;2.00;;;;;;;16.55;81.55;100601.09;5077863;28;20016;-94
2022/09/09 07:48:35;;;;;;;3.25;1.98;;;;;;;16.45;82.64;100613.72;5077764;28;20028;-91
2022/09/09 07:51:29;;;;;;;5.37;1.83;;;;;;;16.35;82.74;100608.06;5077391;28;20073;-93
2022/09/09 07:53:57;;;;;;;6.00;1.80;;;;;;;16.26;82.84;100597.13;5077276;28;20091;-86
2022/09/09 07:56:42;;;;;;;4.57;2.00;;;;;;;16.18;83.78;100605.28;5074411;28;20423;-88
2022/09/09 07:59:08;;;;;;;3.42;1.70;;;;;;;16.15;83.31;100603.66;5064225;28;20056;-86
2022/09/09 08:01:40;;;;;;;4.20;1.80;;;;;;;16.21;84.25;100606.00;5056070;28;20029;-86
2022/09/09 08:04:17;;;;;;;3.75;1.90;;;;;;;16.25;84.40;100605.88;5055612;28;20083;-87
2022/09/09 08:07:00;;;;;;;4.53;1.90;;;;;;;16.28;83.85;100605.75;5054857;28;20033;-87
2022/09/09 08:09:28;;;;;;;4.60;1.67;;;;;;;16.32;83.75;100602.94;5055912;28;20081;-87
2022/09/09 08:11:56;;;;;;;3.92;1.85;;;;;;;16.38;83.69;100599.22;5055420;28;20037;-86
2022/09/09 08:14:42;;;;;;;4.70;2.03;;;;;;;16.41;83.42;100603.44;5056193;28;20032;-86
2022/09/09 08:17:07;;;;;;;4.70;1.65;;;;;;;16.49;83.87;100604.81;5055201;28;20028;-88
2022/09/09 08:19:35;;;;;;;3.87;1.90;;;;;;;16.54;83.17;100602.00;5055876;28;20067;-89
2022/09/09 08:22:12;;;;;;;3.40;1.83;;;;;;;16.52;82.83;100604.69;5055456;28;20033;-87
2022/09/09 08:24:39;;;;;;;5.00;1.70;;;;;;;16.58;84.34;100607.94;5054778;28;20075;-86
2022/09/09 08:27:04;;;;;;;6.75;2.40;;;;;;;16.59;82.90;100612.28;5056020;28;20029;-87
2022/09/09 08:29:29;;;;;;;4.90;1.80;;;;;;;16.65;83.02;100606.78;5055320;28;20541;-86
2022/09/09 08:32:14;;;;;;;2.20;1.60;;;;;;;16.66;82.96;100611.09;5055175;28;20021;-85
2022/09/09 08:34:40;;;;;;;3.97;2.00;;;;;;;16.71;83.29;100613.53;5054907;28;20024;-88
2022/09/09 08:37:05;;;;;;;3.28;1.67;;;;;;;16.69;81.50;100616.19;5055613;28;20028;-85
2022/09/09 08:39:32;;;;;;;3.73;1.77;;;;;;;16.72;82.00;100613.44;5054786;28;20021;-92
2022/09/09 08:42:03;;;;;;;;;;;;;;;16.76;81.91;100611.53;5055942;28;20052;-86
2022/09/09 08:44:52;;;;;;;4.53;2.00;;;;;;;16.74;81.88;100619.47;5055325;28;19940;-87
2022/09/09 08:47:39;;;;;;;2.85;1.65;;;;;;;16.77;81.05;100621.09;5055698;28;20382;-88
2022/09/09 08:50:29;;;;;;;6.20;2.00;;;;;;;16.74;81.56;100619.47;5055998;28;20366;-87
2022/09/09 08:53:03;;;;;;;7.13;2.17;;;;;;;16.66;80.98;100625.03;5054409;28;20047;-88
2022/09/09 08:55:48;;;;;;;3.70;1.90;;;;;;;16.61;81.05;100634.03;5054771;28;20052;-88
2022/09/09 08:58:34;;;;;;;5.05;1.92;;;;;;;16.60;81.70;100627.06;5056869;28;20393;-88
2022/09/09 09:01:09;;;;;;;;;;;;;;;16.62;81.26;100633.94;5076114;28;20113;-88
2022/09/09 09:03:54;;;;;;;3.90;1.75;;;;;;;16.63;80.83;100632.19;5075305;28;19919;-87
2022/09/09 09:06:41;;;;;;;4.50;1.80;;;;;;;16.71;80.77;100637.94;5074538;28;20077;-88
2022/09/09 09:09:39;;;;;;;3.70;1.70;;;;;;;16.72;81.26;100644.03;5075448;28;20377;-91
2022/09/09 09:12:17;;;;;;;2.75;1.55;;;;;;;16.76;81.17;100641.22;5075128;28;20033;-88
2022/09/09 09:14:45;;;;;;;4.97;1.65;;;;;;;16.77;80.74;100635.06;5074639;28;20503;-87
2022/09/09 09:17:15;;;;;;;4.65;2.08;;;;;;;16.76;81.00;100643.84;5075126;28;20029;-87
2022/09/09 09:19:43;;;;;;;4.68;2.00;;;;;;;16.77;81.18;100648.16;5063823;28;20040;-91
2022/09/09 09:22:15;;;;;;;5.68;1.75;;;;;;;16.84;80.49;100646.09;5055238;28;20032;-87
2022/09/09 09:24:54;;;;;;;3.20;1.67;;;;;;;16.90;81.01;100637.09;5055324;28;20108;-87
2022/09/09 09:27:43;;;;;;;4.70;1.85;;;;;;;16.95;80.41;100656.13;5054755;28;20056;-87
2022/09/09 09:30:21;;;;;;;5.25;1.90;;;;;;;16.87;79.62;100656.44;5056480;28;20477;-92
2022/09/09 09:33:14;;;;;;;3.38;1.98;;;;;;;16.82;79.97;100654.03;5057269;28;20454;-93
2022/09/09 09:35:59;;;;;;;3.53;2.05;;;;;;;16.76;80.29;100653.44;5054861;28;20076;-92
2022/09/09 09:38:27;;;;;;;7.55;2.20;;;;;;;16.76;81.44;100646.47;5055383;28;20083;-86
2022/09/09 09:41:00;;;;;;;4.40;1.83;;;;;;;16.80;80.57;100650.63;5053825;28;20052;-87
2022/09/09 09:43:28;;;;;;;4.45;1.95;;;;;;;16.86;80.31;100649.50;5054654;28;20021;-87
2022/09/09 09:45:55;;;;;;;5.90;2.05;;;;;;;16.94;79.80;100651.81;5055456;28;20024;-88
2022/09/09 09:48:20;;;;;;;6.47;1.98;;;;;;;17.02;79.20;100639.19;5054853;28;20035;-86
2022/09/09 09:51:12;;;;;;;4.57;1.90;;;;;;;17.08;79.97;100649.44;5054431;28;20028;-88
2022/09/09 09:53:38;;;;;;;3.58;1.70;;;;;;;17.09;80.97;100635.41;5054498;28;20203;-88
2022/09/09 09:56:07;;;;;;;2.47;1.60;;;;;;;17.07;80.93;100646.84;5054279;28;20021;-89
2022/09/09 09:58:53;;;;;;;5.93;2.00;;;;;;;17.00;80.79;100640.19;5054497;28;20051;-87
2022/09/09 10:01:31;;;;;;;5.75;2.15;;;;;;;16.91;79.70;100634.44;5104297;22;20054;-86
2022/09/09 10:04:21;;;;;;;3.78;1.90;;;;;;;16.87;81.78;100639.88;5032657;28;20041;-87
2022/09/09 10:06:47;;;;;;;4.30;2.10;;;;;;;16.80;81.14;100645.38;5034277;28;20018;-89
2022/09/09 10:09:33;;;;;;;2.58;1.70;;;;;;;16.71;81.90;100648.41;5035741;28;20055;-96
2022/09/09 10:12:17;;;;;;;4.15;1.80;;;;;;;16.61;82.42;100647.97;5036455;28;20053;-96
2022/09/09 10:15:05;;;;;;;4.35;1.77;;;;;;;16.52;85.11;100640.50;5036281;28;20033;-95
2022/09/09 10:17:43;;;;;;;2.53;1.58;;;;;;;16.53;86.10;100657.94;5038434;28;20047;-96
2022/09/09 10:20:24;;;;;;;2.15;1.80;;;;;;;16.52;86.21;100651.84;5040767;28;20025;-96
2022/09/09 10:23:16;;;;;;;4.03;2.00;;;;;;;16.47;85.55;100651.19;5037717;28;20389;-92
2022/09/09 10:25:51;;;;;;;3.78;1.80;;;;;;;16.50;84.98;100648.44;5034108;28;20033;-92
2022/09/09 10:28:52;;;;;;;8.50;2.25;;;;;;;16.58;85.27;100657.72;5030907;28;20025;-92
2022/09/09 10:32:00;;;;;;;4.45;2.00;;;;;;;16.61;85.54;100653.19;5015747;28;20034;-92
2022/09/09 10:34:50;;;;;;;3.53;1.77;;;;;;;16.66;84.90;100664.34;4915856;29;20032;-89
2022/09/09 10:37:30;;;;;;;4.22;1.85;;;;;;;16.56;85.83;100665.66;4915505;29;20039;-92
2022/09/09 10:40:13;;;;;;;5.90;2.03;;;;;;;16.48;85.88;100671.22;4988667;28;20046;-91
2022/09/09 10:42:38;;;;;;;3.90;2.00;;;;;;;16.46;86.13;100666.97;5034057;28;20034;-92
2022/09/09 10:45:21;;;;;;;5.53;2.00;;;;;;;16.45;87.23;100662.66;5034527;28;20025;-92
2022/09/09 10:48:18;;;;;;;6.18;2.30;;;;;;;16.39;86.36;100660.28;5034176;28;20022;-91
2022/09/09 10:50:47;;;;;;;4.97;2.30;;;;;;;16.36;86.68;100666.50;5029164;28;20037;-90
2022/09/09 10:53:52;;;;;;;4.03;2.00;;;;;;;16.35;87.14;100660.44;5034105;28;20033;-91
2022/09/09 10:56:26;;;;;;;6.53;2.10;;;;;;;16.37;88.24;100662.97;5029868;28;20029;-94
2022/09/09 10:59:12;;;;;;;4.97;2.15;;;;;;;16.42;87.27;100666.25;5023649;28;20021;-93
2022/09/09 11:01:44;;;;;;;4.95;2.00;;;;;;;16.50;88.19;100652.81;5041992;28;20117;-92
2022/09/09 11:04:19;;;;;;;3.38;1.98;;;;;;;16.58;86.01;100650.75;5053866;28;20037;-91
2022/09/09 11:06:51;;;;;;;3.78;1.90;;;;;;;16.63;85.72;100658.41;5053565;28;20067;-93
2022/09/09 11:09:22;;;;;;;5.18;1.90;;;;;;;16.62;86.73;100652.28;5053947;28;20386;-93
2022/09/09 11:11:55;;;;;;;4.35;1.90;;;;;;;16.60;87.31;100661.13;5041568;28;20033;-93
2022/09/09 11:14:40;;;;;;;5.32;2.03;;;;;;;16.59;87.36;100656.81;5033871;28;20052;-92
2022/09/09 11:17:49;;;;;;;4.60;2.10;;;;;;;16.61;88.40;100652.38;5040461;28;20025;-95
2022/09/09 11:20:15;;;;;;;4.78;2.05;;;;;;;16.66;87.30;100650.41;5026718;28;20033;-93
2022/09/09 11:23:12;;;;;;;5.40;2.20;;;;;;;16.72;88.66;100657.16;5033069;28;20059;-93
2022/09/09 11:25:55;;;;;;;3.70;2.08;;;;;;;16.75;86.80;100647.38;5032843;28;20040;-94
2022/09/09 11:28:42;;;;;;;4.13;2.13;;;;;;;16.81;86.46;100657.56;5033928;28;20022;-91
2022/09/09 11:31:41;;;;;;;2.78;1.77;;;;;;;16.86;86.89;100646.03;5033972;28;20470;-93
2022/09/09 11:34:09;;;;;;;2.33;1.80;;;;;;;16.81;86.17;100654.94;5032566;28;20378;-92
2022/09/09 11:36:50;;;;;;;4.75;1.90;;;;;;;16.80;86.64;100641.94;5034207;28;20025;-87
2022/09/09 11:39:39;;;;;;;3.65;1.90;;;;;;;16.73;87.09;100646.59;5050494;28;20104;-90
2022/09/09 11:42:07;;;;;;;2.50;1.90;;;;;;;16.70;86.53;100654.56;5053856;28;20382;-90
2022/09/09 11:44:33;;;;;;;3.53;1.80;;;;;;;16.66;87.02;100645.16;5053697;28;20036;-90
2022/09/09 11:46:58;;;;;;;3.13;2.00;;;;;;;16.64;87.47;100652.25;5053533;28;20366;-89
2022/09/09 11:49:37;;;;;;;3.50;2.17;;;;;;;16.64;87.27;100655.69;5053022;28;20029;-88
2022/09/09 11:52:21;;;;;;;3.42;1.73;;;;;;;16.59;87.00;100647.19;5053704;28;20421;-92
2022/09/09 11:54:49;;;;;;;3.38;1.83;;;;;;;16.58;86.48;100645.50;5053374;28;20018;-88
2022/09/09 11:57:42;;;;;;;3.50;1.77;;;;;;;16.60;87.03;100646.28;5053021;28;20032;-96
2022/09/09 12:00:30;;;;;;;3.97;2.10;;;;;;;16.65;87.47;100656.56;5051508;28;20036;-88
2022/09/09 12:02:56;;;;;;;5.22;2.10;;;;;;;16.66;87.14;100656.47;5052593;28;20859;-89
2022/09/09 12:05:21;;;;;;;2.63;1.90;;;;;;;16.73;86.73;100656.19;5053608;28;20056;-91
2022/09/09 12:07:58;;;;;;;3.10;2.00;;;;;;;16.81;87.73;100649.72;5052540;28;20021;-90
2022/09/09 12:10:29;;;;;;;2.42;1.80;;;;;;;16.87;86.87;100645.97;5039132;28;20029;-89
2022/09/09 12:12:54;;;;;;;3.47;1.98;;;;;;;16.99;87.45;100647.22;5033241;28;20492;-93
2022/09/09 12:15:28;;;;;;;3.53;1.90;;;;;;;17.11;87.18;100651.06;5032402;28;20030;-86
2022/09/09 12:17:58;;;;;;;5.05;2.00;;;;;;;17.24;87.04;100640.84;5033934;28;20026;-88
2022/09/09 12:20:30;;;;;;;5.18;2.20;;;;;;;17.35;85.52;100641.19;5033200;28;20029;-90
2022/09/09 12:23:20;;;;;;;3.55;1.90;;;;;;;17.50;86.43;100644.00;5032954;28;20433;-91
2022/09/09 12:26:19;;;;;;;3.63;1.85;;;;;;;17.63;85.17;100639.00;5032524;28;20096;-86
2022/09/09 12:28:52;;;;;;;6.13;2.47;;;;;;;17.58;84.26;100647.97;5006118;28;20037;-87
2022/09/09 12:31:34;;;;;;;4.28;1.90;;;;;;;17.56;83.51;100643.75;5055792;28;20029;-89
2022/09/09 12:34:17;;;;;;;4.97;2.03;;;;;;;17.54;83.61;100635.91;5049900;28;20034;-88
2022/09/09 12:36:45;;;;;;;3.00;1.80;;;;;;;17.53;83.41;100638.63;5033782;28;20500;-88
2022/09/09 12:39:38;;;;;;;4.05;2.10;;;;;;;17.53;83.18;100634.22;5035947;28;20454;-90
2022/09/09 12:42:04;;;;;;;4.75;2.25;;;;;;;17.54;82.60;100633.28;5036648;28;20073;-89